createdAt,value
2019-03-30T00:01:40.509Z,226.23
2019-03-30T00:04:49.077Z,180.57
2019-03-30T00:07:57.728Z,158.07
2019-03-30T00:11:06.299Z,157.60
2019-03-30T00:14:14.883Z,151.73
2019-03-30T00:17:23.498Z,147.13
2019-03-30T00:20:32.207Z,144.77
2019-03-30T00:23:40.837Z,144.80
2019-03-30T00:26:49.367Z,126.53
2019-03-30T00:29:58.031Z,127.27
2019-03-30T00:33:06.577Z,121.90
2019-03-30T00:36:15.155Z,123.80
2019-03-30T00:39:23.778Z,127.57
2019-03-30T00:42:33.981Z,132.50
2019-03-30T00:45:43.069Z,126.70
2019-03-30T00:48:51.653Z,138.07
2019-03-30T00:52:00.294Z,136.27
2019-03-30T00:55:09.247Z,126.33
2019-03-30T00:58:18.000Z,136.63
2019-03-30T01:01:26.632Z,135.13
2019-03-30T01:04:35.193Z,134.30
2019-03-30T01:07:43.746Z,140.93
2019-03-30T01:10:52.358Z,133.27
2019-03-30T01:14:00.911Z,130.80
2019-03-30T01:17:10.369Z,119.43
2019-03-30T01:20:18.927Z,120.87
2019-03-30T01:23:27.493Z,130.67
2019-03-30T01:26:36.420Z,116.10
2019-03-30T01:29:44.962Z,116.47
2019-03-30T01:32:53.659Z,118.23
2019-03-30T01:36:02.249Z,117.27
2019-03-30T01:39:11.079Z,125.23
2019-03-30T01:42:19.857Z,116.87
2019-03-30T01:45:28.720Z,122.77
2019-03-30T01:48:37.555Z,121.17
2019-03-30T01:51:46.108Z,124.40
2019-03-30T01:54:54.726Z,123.97
2019-03-30T01:58:03.292Z,118.80
2019-03-30T02:01:12.764Z,118.57
2019-03-30T02:04:21.314Z,116.37
2019-03-30T02:07:29.882Z,119.70
2019-03-30T02:10:45.828Z,123.73
2019-03-30T02:13:54.446Z,120.47
2019-03-30T02:17:02.999Z,116.47
2019-03-30T02:20:30.403Z,119.27
2019-03-30T02:23:28.681Z,123.20
2019-03-30T02:26:38.501Z,117.37
2019-03-30T02:29:47.648Z,129.17
2019-03-30T02:32:56.647Z,130.20
2019-03-30T02:36:05.380Z,129.33
2019-03-30T02:39:13.987Z,123.77
2019-03-30T02:42:22.524Z,109.70
2019-03-30T02:45:31.219Z,122.67
2019-03-30T02:48:39.808Z,124.57
2019-03-30T02:51:48.371Z,115.37
2019-03-30T02:54:57.059Z,121.80
2019-03-30T02:58:05.597Z,124.17
2019-03-30T03:01:14.232Z,123.53
2019-03-30T03:04:22.818Z,123.13
2019-03-30T03:07:32.031Z,124.60
2019-03-30T03:10:40.931Z,124.10
2019-03-30T03:13:49.853Z,119.97
2019-03-30T03:16:59.170Z,121.03
2019-03-30T03:20:08.092Z,120.10
2019-03-30T03:23:16.704Z,128.50
2019-03-30T03:26:25.341Z,123.03
2019-03-30T03:29:33.854Z,130.37
2019-03-30T03:32:42.495Z,131.83
2019-03-30T03:35:51.026Z,134.20
2019-03-30T03:39:01.322Z,124.30
2019-03-30T03:42:11.655Z,127.27
2019-03-30T03:45:20.353Z,115.10
2019-03-30T03:48:28.889Z,117.90
2019-03-30T03:51:37.506Z,112.67
2019-03-30T03:54:46.618Z,115.20
2019-03-30T03:57:56.197Z,117.07
2019-03-30T04:01:05.635Z,111.57
2019-03-30T04:04:16.600Z,110.93
2019-03-30T04:07:27.232Z,114.50
2019-03-30T04:10:38.625Z,115.27
2019-03-30T04:13:51.222Z,121.20
2019-03-30T04:16:59.796Z,122.37
2019-03-30T04:20:09.698Z,127.50
2019-03-30T04:23:18.248Z,131.80
2019-03-30T04:26:26.834Z,125.90
2019-03-30T04:29:35.403Z,125.43
2019-03-30T04:32:44.033Z,130.43
2019-03-30T04:35:52.644Z,135.53
2019-03-30T04:39:01.239Z,124.30
2019-03-30T04:42:11.339Z,127.60
2019-03-30T04:45:19.935Z,120.57
2019-03-30T04:48:29.606Z,115.83
2019-03-30T04:51:38.657Z,127.70
2019-03-30T04:54:47.797Z,131.57
2019-03-30T04:57:57.832Z,137.67
2019-03-30T05:01:06.613Z,161.40
2019-03-30T05:04:15.378Z,195.37
2019-03-30T05:07:24.031Z,233.37
2019-03-30T05:10:32.792Z,242.00
2019-03-30T05:13:41.436Z,230.40
2019-03-30T05:16:50.941Z,207.87
2019-03-30T05:19:59.539Z,200.83
2019-03-30T05:23:08.145Z,163.43
2019-03-30T05:26:16.742Z,167.20
2019-03-30T05:29:25.618Z,239.23
2019-03-30T05:32:34.203Z,194.27
2019-03-30T05:35:42.819Z,193.50
2019-03-30T05:38:51.379Z,170.17
2019-03-30T05:42:00.093Z,137.97
2019-03-30T05:45:10.665Z,127.97
2019-03-30T05:48:20.452Z,129.67
2019-03-30T05:51:29.029Z,125.63
2019-03-30T05:54:37.657Z,115.77
2019-03-30T05:57:46.419Z,118.77
2019-03-30T06:00:55.293Z,125.00
2019-03-30T06:04:03.977Z,132.30
2019-03-30T06:07:14.684Z,119.73
2019-03-30T06:10:24.060Z,117.30
2019-03-30T06:13:32.644Z,124.30
2019-03-30T06:16:41.195Z,131.30
2019-03-30T06:19:49.891Z,130.67
2019-03-30T06:22:58.418Z,142.37
2019-03-30T06:26:07.054Z,142.33
2019-03-30T06:29:16.078Z,133.23
2019-03-30T06:32:24.691Z,138.30
2019-03-30T06:35:33.305Z,153.60
2019-03-30T06:38:41.879Z,161.33
2019-03-30T06:41:50.499Z,161.27
2019-03-30T06:44:59.035Z,135.17
2019-03-30T06:48:09.527Z,143.60
2019-03-30T06:51:18.107Z,141.67
2019-03-30T06:54:27.609Z,142.67
2019-03-30T06:57:36.346Z,148.87
2019-03-30T07:00:46.859Z,147.57
2019-03-30T07:03:55.943Z,134.60
2019-03-30T07:07:05.287Z,128.87
2019-03-30T07:10:14.592Z,139.50
2019-03-30T07:13:26.776Z,140.57
2019-03-30T07:16:40.049Z,134.13
2019-03-30T07:19:51.488Z,133.40
2019-03-30T07:23:11.378Z,130.10
2019-03-30T07:26:10.881Z,136.20
2019-03-30T07:29:19.626Z,140.50
2019-03-30T07:32:28.291Z,141.23
2019-03-30T07:35:36.935Z,129.00
2019-03-30T07:38:49.080Z,113.47
2019-03-30T07:41:57.684Z,104.30
2019-03-30T07:45:06.511Z,108.67
2019-03-30T07:48:15.278Z,105.07
2019-03-30T07:51:23.891Z,104.50
2019-03-30T07:54:32.487Z,96.80
2019-03-30T07:57:41.163Z,95.20
2019-03-30T08:00:51.983Z,92.57
2019-03-30T08:04:00.601Z,87.30
2019-03-30T08:07:09.385Z,84.00
2019-03-30T08:10:18.187Z,77.70
2019-03-30T08:13:29.770Z,75.93
2019-03-30T08:16:38.581Z,72.57
2019-03-30T08:19:50.261Z,69.10
2019-03-30T08:22:58.517Z,62.60
2019-03-30T08:26:07.250Z,64.87
2019-03-30T08:29:16.057Z,62.43
2019-03-30T08:32:24.774Z,57.93
2019-03-30T08:35:33.753Z,52.13
2019-03-30T08:38:42.408Z,46.93
2019-03-30T08:41:52.299Z,49.27
2019-03-30T08:45:01.124Z,42.07
2019-03-30T08:48:09.846Z,35.43
2019-03-30T08:51:20.826Z,33.20
2019-03-30T08:54:29.452Z,31.30
2019-03-30T08:57:38.026Z,27.90
2019-03-30T09:00:46.630Z,32.30
2019-03-30T09:03:56.993Z,32.83
2019-03-30T09:07:06.417Z,25.67
2019-03-30T09:10:15.018Z,31.20
2019-03-30T09:13:23.690Z,31.73
2019-03-30T09:16:33.535Z,35.47
2019-03-30T09:19:42.110Z,34.27
2019-03-30T09:22:50.695Z,16.97
2019-03-30T09:25:59.253Z,26.90
2019-03-30T09:29:07.896Z,28.77
2019-03-30T09:32:18.186Z,42.63
2019-03-30T09:35:26.815Z,39.90
2019-03-30T09:38:35.494Z,38.40
2019-03-30T09:41:44.114Z,38.10
2019-03-30T09:44:53.942Z,44.00
2019-03-30T09:48:02.584Z,35.80
2019-03-30T09:51:11.121Z,32.47
2019-03-30T09:54:23.978Z,29.80
2019-03-30T09:57:30.403Z,33.03
2019-03-30T10:00:39.175Z,29.30
2019-03-30T10:03:47.746Z,29.93
2019-03-30T10:06:56.476Z,28.30
2019-03-30T10:10:05.684Z,32.60
2019-03-30T10:13:14.312Z,34.20
2019-03-30T10:16:22.907Z,29.60
2019-03-30T10:19:31.600Z,29.80
2019-03-30T10:22:42.232Z,29.57
2019-03-30T10:25:50.570Z,29.77
2019-03-30T10:29:00.385Z,34.47
2019-03-30T10:32:09.071Z,33.97
2019-03-30T10:35:17.639Z,34.47
2019-03-30T10:38:26.803Z,31.03
2019-03-30T10:41:35.472Z,26.70
2019-03-30T10:44:44.037Z,31.90
2019-03-30T10:47:52.672Z,29.63
2019-03-30T10:51:01.766Z,30.37
2019-03-30T10:54:10.431Z,31.33
2019-03-30T10:57:19.022Z,31.63
2019-03-30T11:00:40.007Z,33.03
2019-03-30T11:03:49.447Z,31.07
2019-03-30T11:06:58.613Z,32.97
2019-03-30T11:10:08.202Z,32.70
2019-03-30T11:13:16.772Z,32.10
2019-03-30T11:16:25.429Z,32.93
2019-03-30T11:19:34.044Z,30.10
2019-03-30T11:22:42.644Z,30.57
2019-03-30T11:25:51.227Z,32.73
2019-03-30T11:29:00.969Z,32.07
2019-03-30T11:32:09.596Z,33.30
2019-03-30T11:35:18.135Z,28.90
2019-03-30T11:38:26.988Z,30.50
2019-03-30T11:41:35.595Z,31.10
2019-03-30T11:44:47.593Z,33.40
2019-03-30T11:47:58.054Z,30.73
2019-03-30T11:51:06.643Z,31.50
2019-03-30T11:54:15.393Z,31.53
2019-03-30T11:57:23.924Z,32.77
2019-03-30T12:00:32.495Z,32.33
2019-03-30T12:03:41.107Z,32.00
2019-03-30T12:06:51.823Z,30.33
2019-03-30T12:10:00.017Z,33.20
2019-03-30T12:13:08.711Z,28.30
2019-03-30T12:16:17.277Z,27.40
2019-03-30T12:19:25.871Z,26.20
2019-03-30T12:22:34.865Z,29.40
2019-03-30T12:25:43.547Z,26.47
2019-03-30T12:28:52.087Z,26.70
2019-03-30T12:32:00.799Z,25.30
2019-03-30T12:35:09.847Z,27.47
2019-03-30T12:38:18.559Z,24.70
2019-03-30T12:41:27.165Z,26.87
2019-03-30T12:44:35.836Z,24.67
2019-03-30T12:47:46.093Z,25.73
2019-03-30T12:50:54.905Z,23.90
2019-03-30T12:54:05.258Z,21.87
2019-03-30T12:57:15.515Z,31.90
2019-03-30T13:00:24.272Z,26.77
2019-03-30T13:03:32.871Z,23.47
2019-03-30T13:06:41.568Z,23.27
2019-03-30T13:09:50.226Z,25.20
2019-03-30T13:12:59.037Z,25.17
2019-03-30T13:16:07.572Z,24.70
2019-03-30T13:19:16.190Z,19.50
2019-03-30T13:22:24.794Z,21.60
2019-03-30T13:25:33.441Z,17.27
2019-03-30T13:28:42.120Z,18.07
2019-03-30T13:31:50.734Z,18.73
2019-03-30T13:35:00.753Z,17.07
2019-03-30T13:38:10.386Z,19.33
2019-03-30T13:41:19.149Z,15.93
2019-03-30T13:44:27.709Z,12.47
2019-03-30T13:47:37.989Z,14.30
2019-03-30T13:50:46.618Z,13.83
2019-03-30T13:53:55.289Z,13.90
2019-03-30T13:57:05.386Z,13.50
2019-03-30T14:00:15.661Z,12.67
2019-03-30T14:03:24.292Z,11.20
2019-03-30T14:06:32.867Z,13.83
2019-03-30T14:09:42.404Z,14.33
2019-03-30T14:12:51.167Z,13.17
2019-03-30T14:15:59.862Z,12.57
2019-03-30T14:19:11.218Z,10.40
2019-03-30T14:22:21.182Z,10.20
2019-03-30T14:25:29.890Z,10.10
2019-03-30T14:28:42.266Z,11.70
2019-03-30T14:31:51.235Z,12.37
2019-03-30T14:35:00.402Z,12.10
2019-03-30T14:38:17.258Z,12.00
2019-03-30T14:41:33.554Z,10.97
2019-03-30T14:45:07.346Z,12.87
2019-03-30T14:48:19.444Z,11.03
2019-03-30T14:51:32.409Z,11.30
2019-03-30T14:54:52.678Z,11.40
2019-03-30T14:57:57.472Z,10.63
2019-03-30T15:01:07.023Z,9.37
2019-03-30T15:04:16.215Z,7.10
2019-03-30T15:07:48.198Z,11.07
2019-03-30T15:10:58.954Z,14.40
2019-03-30T15:14:09.653Z,30.90
2019-03-30T15:17:19.244Z,15.30
2019-03-30T15:20:28.003Z,6.70
2019-03-30T15:23:36.828Z,9.57
2019-03-30T15:26:53.889Z,28.03
2019-03-30T15:29:55.659Z,10.90
2019-03-30T15:33:04.260Z,21.10
2019-03-30T15:36:13.134Z,16.83
2019-03-30T15:39:21.828Z,7.73
2019-03-30T15:42:30.411Z,5.30
2019-03-30T15:45:41.516Z,6.13
2019-03-30T15:48:50.158Z,18.00
2019-03-30T15:52:13.011Z,11.73
2019-03-30T15:55:09.470Z,14.60
2019-03-30T15:58:18.070Z,7.67
2019-03-30T16:01:26.631Z,9.30
2019-03-30T16:04:35.626Z,8.00
2019-03-30T16:07:44.273Z,16.50
2019-03-30T16:10:52.847Z,8.90
2019-03-30T16:14:01.440Z,12.33
2019-03-30T16:17:10.023Z,11.00
2019-03-30T16:20:18.681Z,14.47
2019-03-30T16:23:27.562Z,17.93
2019-03-30T16:26:42.239Z,19.90
2019-03-30T16:29:46.595Z,18.10
2019-03-30T16:32:55.274Z,21.10
2019-03-30T16:36:03.941Z,25.73
2019-03-30T16:39:12.793Z,28.20
2019-03-30T16:42:21.520Z,44.03
2019-03-30T16:45:30.397Z,58.83
2019-03-30T16:48:40.042Z,41.87
2019-03-30T16:51:48.953Z,46.23
2019-03-30T16:54:57.497Z,35.07
2019-03-30T16:58:06.104Z,36.63
2019-03-30T17:01:14.794Z,49.00
2019-03-30T17:04:23.404Z,48.90
2019-03-30T17:07:32.122Z,48.60
2019-03-30T17:10:42.060Z,47.27
2019-03-30T17:13:52.351Z,37.03
2019-03-30T17:17:00.903Z,40.13
2019-03-30T17:20:10.410Z,61.40
2019-03-30T17:23:20.953Z,87.30
2019-03-30T17:26:29.666Z,91.07
2019-03-30T17:29:40.024Z,96.50
2019-03-30T17:32:50.374Z,63.00
2019-03-30T17:35:58.933Z,59.97
2019-03-30T17:39:10.489Z,69.63
2019-03-30T17:42:19.140Z,105.57
2019-03-30T17:45:29.097Z,117.53
2019-03-30T17:48:38.128Z,97.07
2019-03-30T17:51:46.661Z,120.77
2019-03-30T17:54:55.452Z,101.53
2019-03-30T17:58:12.904Z,94.20
2019-03-30T18:01:15.934Z,108.37
2019-03-30T18:04:24.806Z,220.77
2019-03-30T18:07:33.442Z,220.17
2019-03-30T18:10:42.043Z,235.20
2019-03-30T18:13:50.629Z,243.90
2019-03-30T18:16:59.419Z,228.07
2019-03-30T18:20:08.704Z,207.00
2019-03-30T18:23:17.422Z,162.03
2019-03-30T18:26:26.055Z,249.70
2019-03-30T18:29:34.700Z,162.57
2019-03-30T18:32:44.005Z,135.50
2019-03-30T18:35:52.954Z,216.10
2019-03-30T18:39:09.255Z,176.03
2019-03-30T18:42:14.600Z,202.63
2019-03-30T18:45:29.489Z,221.30
2019-03-30T18:48:38.268Z,210.17
2019-03-30T18:51:48.757Z,245.60
2019-03-30T18:54:57.693Z,250.57
2019-03-30T18:58:06.969Z,184.77
2019-03-30T19:01:16.403Z,140.50
2019-03-30T19:04:25.052Z,181.33
2019-03-30T19:07:33.693Z,169.83
2019-03-30T19:10:42.274Z,150.67
2019-03-30T19:13:51.512Z,122.30
2019-03-30T19:17:01.545Z,102.97
2019-03-30T19:20:10.426Z,101.80
2019-03-30T19:23:19.107Z,104.10
2019-03-30T19:26:27.875Z,112.67
2019-03-30T19:29:37.696Z,124.80
2019-03-30T19:32:47.783Z,116.63
2019-03-30T19:35:56.741Z,120.30
2019-03-30T19:39:08.228Z,146.97
2019-03-30T19:42:19.150Z,98.37
2019-03-30T19:45:27.925Z,118.23
2019-03-30T19:48:37.409Z,94.73
2019-03-30T19:51:46.504Z,95.83
2019-03-30T19:54:55.034Z,73.27
2019-03-30T19:58:05.886Z,60.13
2019-03-30T20:01:15.104Z,62.80
2019-03-30T20:04:23.807Z,72.93
2019-03-30T20:07:32.379Z,73.93
2019-03-30T20:10:42.025Z,68.00
2019-03-30T20:13:50.682Z,57.70
2019-03-30T20:16:59.386Z,55.83
2019-03-30T20:20:08.808Z,65.70
2019-03-30T20:23:17.665Z,61.10
2019-03-30T20:26:26.581Z,60.23
2019-03-30T20:29:35.154Z,53.97
2019-03-30T20:32:43.779Z,57.87
2019-03-30T20:35:52.397Z,71.70
2019-03-30T20:39:01.029Z,71.23
2019-03-30T20:42:11.345Z,66.03
2019-03-30T20:45:20.017Z,68.77
2019-03-30T20:48:28.542Z,75.57
2019-03-30T20:51:37.218Z,84.00
2019-03-30T20:54:45.973Z,76.47
2019-03-30T20:57:54.567Z,71.43
2019-03-30T21:01:03.476Z,86.63
2019-03-30T21:04:12.232Z,124.90
2019-03-30T21:07:20.915Z,98.67
2019-03-30T21:10:29.540Z,78.70
2019-03-30T21:13:38.156Z,73.10
2019-03-30T21:16:46.791Z,68.50
2019-03-30T21:19:55.377Z,60.27
2019-03-30T21:23:03.995Z,55.55
2019-03-30T21:26:12.671Z,52.83
2019-03-30T21:29:21.306Z,52.63
2019-03-30T21:32:30.534Z,51.43
2019-03-30T21:35:39.772Z,49.50
2019-03-30T21:38:48.392Z,53.93
2019-03-30T21:41:57.015Z,53.67
2019-03-30T21:45:05.997Z,48.07
2019-03-30T21:48:14.620Z,50.90
2019-03-30T21:51:23.198Z,63.70
2019-03-30T21:54:32.095Z,57.93
2019-03-30T21:57:40.849Z,55.37
2019-03-30T22:00:49.450Z,53.90
2019-03-30T22:03:58.085Z,56.30
2019-03-30T22:07:07.482Z,57.30
2019-03-30T22:10:19.569Z,57.20
2019-03-30T22:13:28.320Z,53.83
2019-03-30T22:16:38.369Z,54.23
2019-03-30T22:19:46.957Z,53.90
2019-03-30T22:22:55.867Z,55.50
2019-03-30T22:26:06.961Z,54.37
2019-03-30T22:29:15.571Z,51.83
2019-03-30T22:32:24.177Z,53.60
2019-03-30T22:35:34.582Z,55.60
2019-03-30T22:38:43.239Z,53.93
2019-03-30T22:41:52.349Z,53.17
2019-03-30T22:45:00.929Z,57.00
2019-03-30T22:48:09.659Z,52.70
2019-03-30T22:51:18.347Z,51.90
2019-03-30T22:54:26.965Z,54.07
2019-03-30T22:57:37.163Z,51.63
2019-03-30T23:01:02.917Z,46.37
2019-03-30T23:04:12.033Z,58.80
2019-03-30T23:07:20.676Z,57.93
2019-03-30T23:10:29.306Z,60.53
2019-03-30T23:13:38.265Z,64.57
2019-03-30T23:16:46.858Z,67.57
2019-03-30T23:19:55.614Z,63.33
2019-03-30T23:23:05.500Z,70.50
2019-03-30T23:26:14.941Z,64.87
2019-03-30T23:29:24.181Z,61.87
2019-03-30T23:32:32.805Z,57.90
2019-03-30T23:35:41.488Z,57.90
2019-03-30T23:38:50.237Z,57.03
2019-03-30T23:41:58.878Z,56.90
2019-03-30T23:45:07.978Z,47.67
2019-03-30T23:48:16.587Z,53.97
2019-03-30T23:51:25.219Z,48.77
2019-03-30T23:54:33.789Z,51.20
2019-03-30T23:57:42.441Z,51.47
